Alvord, Texas
Current Conditions -  °F | °C
As of 11:15 PM on Friday 28 Nov 2014 (Local Time) from KLUD Reporting Station
Clear Clear  
Wind Chill: 59°   Ceiling: Unl
Heat Index: 59°   Visibility: 10mi
Dew Point: 44°   Wind: 14mph
Humidity: 57%   Direction: 210°SSW
Pressure: 29.95"   Gusts: 21mph
Location:  33.36°N, 97.69°W
Report Text: KLUD 290515Z AUTO 21012G18KT 10SM CLR 15/07 A2995 RMK AO2 T01500066
Loading
Personal Weather Stations






























Interactive Weather Map New forecast layout! Learn more

10-Day Weather Forecast

Advertisements
Track Severe Weather on mobile